createdAt,value
2017-11-09T00:00:06.582Z,13.73
2017-11-09T00:02:32.930Z,13.10
2017-11-09T00:05:05.515Z,17.15
2017-11-09T00:07:31.988Z,16.87
2017-11-09T00:09:59.723Z,15.15
2017-11-09T00:12:26.197Z,17.35
2017-11-09T00:14:54.298Z,15.18
2017-11-09T00:17:20.759Z,13.43
2017-11-09T00:19:47.227Z,17.67
2017-11-09T00:22:14.415Z,16.85
2017-11-09T00:24:40.915Z,15.20
2017-11-09T00:27:08.091Z,17.00
2017-11-09T00:29:34.496Z,16.27
2017-11-09T00:32:01.694Z,15.60
2017-11-09T00:34:28.181Z,20.42
2017-11-09T00:36:55.351Z,17.75
2017-11-09T00:39:21.769Z,15.57
2017-11-09T00:41:48.252Z,15.63
2017-11-09T00:44:14.697Z,15.73
2017-11-09T00:46:41.107Z,14.68
2017-11-09T00:49:07.550Z,15.23
2017-11-09T00:51:34.023Z,14.40
2017-11-09T00:54:00.442Z,13.43
2017-11-09T00:56:27.166Z,14.85
2017-11-09T00:58:53.597Z,13.40
2017-11-09T01:01:20.050Z,15.07
2017-11-09T01:03:47.243Z,15.93
2017-11-09T01:06:13.710Z,14.27
2017-11-09T01:08:40.166Z,14.10
2017-11-09T01:11:07.342Z,15.07
2017-11-09T01:13:33.823Z,14.70
2017-11-09T01:16:00.238Z,15.40
2017-11-09T01:18:26.689Z,16.40
2017-11-09T01:20:53.126Z,16.75
2017-11-09T01:23:19.612Z,15.82
2017-11-09T01:25:46.091Z,14.15
2017-11-09T01:28:12.614Z,15.15
2017-11-09T01:30:39.082Z,13.75
2017-11-09T01:33:05.582Z,15.07
2017-11-09T01:35:32.015Z,14.15
2017-11-09T01:37:58.453Z,17.50
2017-11-09T01:40:24.939Z,13.32
2017-11-09T01:42:51.420Z,12.85
2017-11-09T01:45:17.902Z,12.35
2017-11-09T01:47:46.081Z,12.20
2017-11-09T01:50:13.274Z,12.90
2017-11-09T01:52:39.757Z,10.73
2017-11-09T01:55:06.954Z,12.85
2017-11-09T01:57:33.418Z,13.00
2017-11-09T01:59:59.930Z,14.13
2017-11-09T02:02:26.380Z,13.85
2017-11-09T02:04:52.884Z,13.13
2017-11-09T02:07:19.372Z,11.98
2017-11-09T02:09:46.595Z,12.43
2017-11-09T02:12:13.045Z,11.32
2017-11-09T02:14:39.505Z,11.52
2017-11-09T02:17:05.974Z,12.48
2017-11-09T02:19:32.460Z,11.43
2017-11-09T02:21:58.980Z,11.82
2017-11-09T02:24:26.217Z,11.27
2017-11-09T02:26:52.674Z,9.60
2017-11-09T02:29:19.931Z,11.40
2017-11-09T02:31:46.435Z,10.63
2017-11-09T02:34:13.689Z,11.73
2017-11-09T02:36:40.153Z,10.40
2017-11-09T02:39:07.399Z,10.93
2017-11-09T02:41:33.931Z,10.57
2017-11-09T02:44:00.393Z,11.23
2017-11-09T02:46:26.898Z,12.20
2017-11-09T02:48:53.437Z,10.68
2017-11-09T02:51:19.915Z,10.13
2017-11-09T02:53:46.420Z,9.25
2017-11-09T02:56:12.914Z,10.60
2017-11-09T02:58:40.213Z,11.32
2017-11-09T03:01:06.749Z,15.07
2017-11-09T03:03:33.271Z,11.60
2017-11-09T03:05:59.831Z,10.45
2017-11-09T03:08:26.288Z,12.50
2017-11-09T03:10:52.777Z,12.35
2017-11-09T03:13:19.971Z,10.35
2017-11-09T03:15:46.451Z,11.12
2017-11-09T03:18:12.914Z,10.57
2017-11-09T03:20:40.090Z,10.30
2017-11-09T03:23:06.543Z,11.12
2017-11-09T03:25:32.986Z,11.57
2017-11-09T03:27:59.436Z,11.88
2017-11-09T03:30:25.854Z,10.85
2017-11-09T03:32:52.300Z,11.07
2017-11-09T03:35:18.724Z,10.43
2017-11-09T03:37:45.186Z,10.45
2017-11-09T03:40:12.350Z,11.63
2017-11-09T03:42:38.796Z,10.70
2017-11-09T03:45:05.299Z,10.02
2017-11-09T03:47:31.779Z,11.10
2017-11-09T03:49:58.255Z,10.90
2017-11-09T03:52:24.734Z,9.80
2017-11-09T03:54:51.152Z,10.25
2017-11-09T03:57:17.587Z,10.98
2017-11-09T03:59:44.037Z,10.95
2017-11-09T04:02:11.242Z,11.12
2017-11-09T04:04:37.713Z,12.77
2017-11-09T04:07:04.209Z,11.32
2017-11-09T04:09:30.694Z,11.02
2017-11-09T04:11:57.146Z,11.05
2017-11-09T04:14:23.574Z,10.35
2017-11-09T04:16:50.027Z,11.55
2017-11-09T04:19:16.471Z,12.27
2017-11-09T04:21:42.938Z,11.77
2017-11-09T04:24:09.407Z,10.82
2017-11-09T04:26:35.884Z,11.40
2017-11-09T04:29:03.095Z,11.38
2017-11-09T04:31:29.498Z,11.43
2017-11-09T04:33:55.946Z,14.85
2017-11-09T04:36:22.396Z,13.80
2017-11-09T04:38:48.847Z,14.63
2017-11-09T04:41:15.278Z,12.93
2017-11-09T04:43:41.723Z,11.80
2017-11-09T04:46:08.882Z,11.85
2017-11-09T04:48:35.375Z,13.52
2017-11-09T04:51:01.803Z,10.68
2017-11-09T04:53:28.280Z,11.02
2017-11-09T04:55:55.445Z,11.48
2017-11-09T04:58:21.870Z,12.18
2017-11-09T05:00:49.056Z,11.35
2017-11-09T05:03:15.490Z,11.77
2017-11-09T05:05:41.971Z,11.55
2017-11-09T05:08:09.157Z,11.80
2017-11-09T05:10:35.720Z,14.68
2017-11-09T05:13:02.178Z,11.35
2017-11-09T05:15:29.385Z,14.50
2017-11-09T05:17:55.891Z,12.77
2017-11-09T05:20:23.044Z,11.25
2017-11-09T05:22:50.241Z,12.30
2017-11-09T05:25:16.762Z,11.75
2017-11-09T05:27:43.186Z,10.95
2017-11-09T05:30:09.638Z,11.75
2017-11-09T05:32:36.113Z,10.40
2017-11-09T05:35:03.344Z,10.43
2017-11-09T05:37:29.811Z,16.08
2017-11-09T05:39:56.967Z,10.82
2017-11-09T05:42:23.480Z,11.45
2017-11-09T05:44:49.940Z,10.00
2017-11-09T05:47:17.115Z,13.38
2017-11-09T05:49:43.536Z,10.82
2017-11-09T05:52:10.022Z,9.93
2017-11-09T05:54:36.504Z,9.63
2017-11-09T05:57:03.036Z,9.73
2017-11-09T05:59:29.526Z,11.90
2017-11-09T06:01:56.017Z,10.52
2017-11-09T06:04:22.483Z,11.10
2017-11-09T06:06:48.914Z,55.83
2017-11-09T06:09:15.423Z,52.00
2017-11-09T06:11:41.891Z,32.10
2017-11-09T06:14:09.119Z,30.25
2017-11-09T06:16:35.623Z,21.55
2017-11-09T06:19:02.127Z,35.80
2017-11-09T06:21:29.411Z,17.42
2017-11-09T06:23:55.852Z,11.35
2017-11-09T06:26:22.283Z,12.35
2017-11-09T06:28:49.740Z,10.77
2017-11-09T06:31:16.204Z,11.68
2017-11-09T06:33:42.645Z,11.07
2017-11-09T06:36:09.886Z,11.52
2017-11-09T06:38:37.050Z,11.15
2017-11-09T06:41:03.499Z,11.27
2017-11-09T06:43:29.975Z,12.35
2017-11-09T06:45:56.430Z,10.55
2017-11-09T06:48:22.887Z,11.00
2017-11-09T06:50:49.328Z,12.13
2017-11-09T06:53:15.792Z,12.82
2017-11-09T06:55:42.222Z,10.95
2017-11-09T06:58:08.709Z,11.93
2017-11-09T07:00:35.938Z,11.25
2017-11-09T07:03:02.402Z,10.85
2017-11-09T07:05:29.619Z,12.60
2017-11-09T07:07:56.110Z,10.70
2017-11-09T07:10:22.662Z,10.57
2017-11-09T07:12:49.125Z,11.02
2017-11-09T07:15:15.588Z,10.07
2017-11-09T07:17:42.772Z,12.00
2017-11-09T07:20:09.226Z,11.23
2017-11-09T07:22:35.667Z,11.50
2017-11-09T07:25:02.166Z,12.18
2017-11-09T07:27:28.662Z,13.10
2017-11-09T07:29:55.127Z,13.25
2017-11-09T07:32:21.632Z,11.77
2017-11-09T07:34:48.112Z,13.00
2017-11-09T07:37:14.561Z,11.98
2017-11-09T07:39:41.023Z,13.40
2017-11-09T07:42:07.445Z,12.43
2017-11-09T07:44:33.872Z,12.90
2017-11-09T07:47:00.372Z,12.60
2017-11-09T07:49:26.844Z,11.20
2017-11-09T07:51:54.052Z,11.35
2017-11-09T07:54:20.539Z,12.50
2017-11-09T07:56:46.989Z,11.35
2017-11-09T07:59:13.405Z,11.82
2017-11-09T08:01:39.894Z,11.20
2017-11-09T08:04:06.352Z,14.32
2017-11-09T08:06:32.818Z,12.18
2017-11-09T08:08:59.263Z,11.48
2017-11-09T08:11:25.694Z,12.98
2017-11-09T08:13:52.182Z,12.93
2017-11-09T08:16:18.623Z,11.73
2017-11-09T08:18:45.131Z,11.45
2017-11-09T08:21:11.587Z,11.43
2017-11-09T08:23:38.076Z,14.40
2017-11-09T08:26:09.099Z,12.48
2017-11-09T08:28:38.898Z,12.13
2017-11-09T08:31:11.086Z,12.15
2017-11-09T08:33:41.203Z,13.10
2017-11-09T08:36:07.826Z,11.35
2017-11-09T08:38:34.323Z,13.55
2017-11-09T08:41:00.766Z,14.75
2017-11-09T08:43:27.227Z,13.68
2017-11-09T08:45:53.658Z,13.25
2017-11-09T08:48:20.086Z,13.35
2017-11-09T08:50:46.531Z,15.02
2017-11-09T08:53:14.446Z,12.27
2017-11-09T08:55:40.920Z,12.07
2017-11-09T08:58:07.379Z,11.85
2017-11-09T09:00:34.613Z,12.65
2017-11-09T09:03:01.154Z,11.30
2017-11-09T09:05:27.666Z,11.50
2017-11-09T09:07:54.208Z,9.02
2017-11-09T09:10:20.742Z,9.40
2017-11-09T09:12:47.174Z,8.38
2017-11-09T09:15:13.674Z,8.32
2017-11-09T09:17:40.130Z,7.47
2017-11-09T09:20:06.611Z,7.43
2017-11-09T09:22:34.879Z,6.12
2017-11-09T09:25:03.145Z,6.53
2017-11-09T09:27:30.502Z,6.93
2017-11-09T09:30:02.921Z,7.18
2017-11-09T09:32:33.895Z,7.35
2017-11-09T09:35:03.528Z,6.90
2017-11-09T09:37:33.155Z,6.90
2017-11-09T09:40:06.903Z,8.57
2017-11-09T09:42:34.657Z,8.63
2017-11-09T09:45:01.178Z,7.20
2017-11-09T09:47:27.632Z,7.72
2017-11-09T09:49:54.151Z,7.53
2017-11-09T09:52:20.627Z,8.23
2017-11-09T09:54:47.111Z,9.50
2017-11-09T09:57:13.626Z,8.38
2017-11-09T09:59:40.792Z,8.65
2017-11-09T10:02:07.315Z,8.38
2017-11-09T10:04:33.867Z,7.75
2017-11-09T10:07:00.367Z,8.23
2017-11-09T10:09:26.835Z,7.20
2017-11-09T10:11:53.308Z,6.40
2017-11-09T10:14:19.832Z,6.93
2017-11-09T10:16:46.304Z,6.40
2017-11-09T10:19:12.793Z,5.95
2017-11-09T10:21:39.335Z,7.07
2017-11-09T10:24:05.769Z,6.55
2017-11-09T10:26:32.195Z,6.55
2017-11-09T10:28:58.675Z,4.90
2017-11-09T10:31:25.110Z,5.28
2017-11-09T10:33:51.559Z,5.60
2017-11-09T10:36:18.066Z,6.22
2017-11-09T10:38:44.496Z,4.82
2017-11-09T10:41:11.009Z,5.82
2017-11-09T10:43:37.486Z,5.55
2017-11-09T10:46:03.971Z,5.12
2017-11-09T10:48:30.474Z,7.20
2017-11-09T10:50:56.946Z,5.60
2017-11-09T10:53:23.436Z,5.10
2017-11-09T10:55:49.898Z,5.40
2017-11-09T10:58:16.374Z,4.68
2017-11-09T11:00:42.936Z,4.93
2017-11-09T11:03:09.463Z,5.05
2017-11-09T11:05:35.937Z,5.03
2017-11-09T11:08:02.447Z,5.62
2017-11-09T11:10:28.866Z,5.43
2017-11-09T11:12:56.099Z,6.40
2017-11-09T11:15:22.534Z,5.05
2017-11-09T11:17:48.971Z,5.60
2017-11-09T11:20:15.427Z,5.40
2017-11-09T11:22:41.889Z,5.28
2017-11-09T11:25:08.377Z,5.57
2017-11-09T11:27:35.570Z,5.12
2017-11-09T11:30:02.072Z,6.60
2017-11-09T11:32:28.548Z,5.50
2017-11-09T11:34:54.983Z,5.80
2017-11-09T11:37:21.431Z,5.70
2017-11-09T11:39:47.895Z,5.62
2017-11-09T11:42:15.103Z,5.53
2017-11-09T11:44:41.551Z,5.43
2017-11-09T11:47:08.759Z,5.37
2017-11-09T11:49:35.202Z,4.87
2017-11-09T11:52:01.653Z,5.90
2017-11-09T11:54:28.089Z,6.12
2017-11-09T11:56:54.556Z,5.72
2017-11-09T11:59:21.735Z,5.45
2017-11-09T12:01:48.222Z,6.87
2017-11-09T12:04:14.702Z,5.85
2017-11-09T12:06:41.148Z,5.87
2017-11-09T12:09:07.617Z,6.40
2017-11-09T12:11:34.049Z,5.85
2017-11-09T12:14:01.267Z,7.62
2017-11-09T12:16:27.746Z,7.62
2017-11-09T12:18:54.219Z,6.43
2017-11-09T12:21:20.707Z,6.90
2017-11-09T12:23:47.143Z,6.28
2017-11-09T12:26:13.577Z,6.12
2017-11-09T12:28:40.140Z,6.80
2017-11-09T12:31:06.650Z,6.60
2017-11-09T12:33:33.171Z,6.37
2017-11-09T12:35:59.676Z,6.50
2017-11-09T12:38:26.164Z,7.55
2017-11-09T12:40:52.658Z,8.00
2017-11-09T12:43:19.111Z,10.15
2017-11-09T12:45:45.579Z,10.80
2017-11-09T12:48:12.787Z,54.95
2017-11-09T12:50:39.261Z,14.87
2017-11-09T12:53:05.750Z,38.72
2017-11-09T12:55:32.194Z,14.30
2017-11-09T12:57:58.645Z,10.73
2017-11-09T13:00:25.899Z,10.27
2017-11-09T13:02:53.068Z,10.40
2017-11-09T13:05:20.281Z,9.43
2017-11-09T13:07:47.506Z,9.68
2017-11-09T13:10:14.013Z,10.20
2017-11-09T13:12:40.467Z,9.30
2017-11-09T13:15:06.987Z,8.60
2017-11-09T13:17:33.439Z,9.68
2017-11-09T13:19:59.929Z,10.25
2017-11-09T13:22:26.451Z,8.60
2017-11-09T13:24:52.918Z,10.15
2017-11-09T13:27:19.444Z,10.48
2017-11-09T13:29:45.928Z,10.35
2017-11-09T13:32:12.395Z,8.82
2017-11-09T13:34:38.942Z,10.10
2017-11-09T13:37:06.138Z,8.68
2017-11-09T13:39:32.596Z,8.70
2017-11-09T13:41:59.137Z,8.07
2017-11-09T13:44:25.592Z,8.80
2017-11-09T13:46:52.742Z,8.98
2017-11-09T13:49:19.915Z,9.82
2017-11-09T13:51:46.371Z,8.45
2017-11-09T13:54:12.798Z,9.20
2017-11-09T13:56:39.283Z,8.75
2017-11-09T13:59:05.742Z,7.75
2017-11-09T14:01:32.953Z,8.65
2017-11-09T14:03:59.371Z,6.90
2017-11-09T14:06:26.634Z,7.47
2017-11-09T14:08:53.125Z,6.90
2017-11-09T14:11:19.582Z,6.55
2017-11-09T14:13:46.035Z,7.15
2017-11-09T14:16:12.508Z,7.68
2017-11-09T14:18:39.704Z,7.55
2017-11-09T14:21:06.168Z,8.13
2017-11-09T14:23:34.420Z,7.87
2017-11-09T14:26:01.627Z,8.07
2017-11-09T14:28:28.106Z,7.70
2017-11-09T14:30:54.563Z,8.27
2017-11-09T14:33:21.022Z,8.35
2017-11-09T14:35:47.438Z,9.07
2017-11-09T14:38:15.415Z,9.25
2017-11-09T14:40:41.854Z,9.48
2017-11-09T14:43:08.298Z,9.35
2017-11-09T14:45:34.840Z,8.60
2017-11-09T14:48:01.275Z,10.30
2017-11-09T14:50:27.776Z,9.65
2017-11-09T14:52:54.269Z,10.38
2017-11-09T14:55:21.494Z,10.63
2017-11-09T14:57:47.955Z,11.90
2017-11-09T15:00:14.409Z,10.88
2017-11-09T15:02:40.859Z,11.60
2017-11-09T15:05:07.320Z,10.82
2017-11-09T15:07:34.614Z,11.68
2017-11-09T15:10:01.110Z,12.70
2017-11-09T15:12:27.626Z,12.57
2017-11-09T15:14:54.119Z,13.85
2017-11-09T15:17:20.611Z,12.10
2017-11-09T15:19:47.127Z,12.90
2017-11-09T15:22:13.694Z,13.85
2017-11-09T15:24:46.072Z,13.70
2017-11-09T15:27:12.543Z,14.18
2017-11-09T15:29:39.034Z,13.07
2017-11-09T15:32:10.586Z,13.32
2017-11-09T15:34:37.099Z,12.35
2017-11-09T15:37:03.542Z,13.82
2017-11-09T15:39:29.989Z,11.70
2017-11-09T15:41:56.677Z,12.98
2017-11-09T15:44:23.388Z,12.57
2017-11-09T15:46:49.879Z,10.45
2017-11-09T15:49:16.349Z,14.20
2017-11-09T15:51:42.821Z,15.57
2017-11-09T15:54:09.315Z,11.43
2017-11-09T15:56:35.791Z,12.23
2017-11-09T15:59:02.269Z,11.75
2017-11-09T16:01:28.741Z,12.63
2017-11-09T16:03:55.203Z,11.05
2017-11-09T16:06:22.405Z,11.95
2017-11-09T16:08:48.855Z,12.43
2017-11-09T16:11:15.338Z,14.27
2017-11-09T16:13:42.487Z,12.10
2017-11-09T16:16:08.943Z,12.55
2017-11-09T16:18:37.509Z,13.20
2017-11-09T16:21:03.966Z,13.00
2017-11-09T16:23:30.425Z,13.30
2017-11-09T16:25:56.919Z,13.23
2017-11-09T16:28:23.404Z,11.70
2017-11-09T16:30:49.865Z,15.48
2017-11-09T16:33:16.338Z,14.95
2017-11-09T16:35:42.767Z,18.42
2017-11-09T16:38:09.980Z,16.85
2017-11-09T16:40:36.455Z,12.88
2017-11-09T16:43:02.943Z,16.65
2017-11-09T16:45:29.427Z,18.45
2017-11-09T16:47:55.924Z,15.63
2017-11-09T16:50:22.436Z,15.40
2017-11-09T16:52:50.820Z,18.90
2017-11-09T16:55:17.292Z,16.60
2017-11-09T16:57:43.735Z,16.50
2017-11-09T17:00:10.198Z,16.25
2017-11-09T17:02:36.696Z,17.85
2017-11-09T17:05:03.208Z,16.95
2017-11-09T17:07:29.648Z,17.33
2017-11-09T17:09:56.130Z,17.20
2017-11-09T17:12:23.318Z,35.47
2017-11-09T17:14:49.789Z,21.08
2017-11-09T17:17:16.277Z,24.15
2017-11-09T17:19:42.781Z,19.50
2017-11-09T17:22:09.239Z,31.73
2017-11-09T17:24:36.410Z,24.25
2017-11-09T17:27:02.952Z,18.83
2017-11-09T17:29:29.411Z,19.85
2017-11-09T17:31:55.891Z,17.90
2017-11-09T17:34:23.119Z,17.98
2017-11-09T17:36:50.322Z,18.52
2017-11-09T17:39:16.784Z,40.42
2017-11-09T17:41:43.264Z,25.48
2017-11-09T17:44:09.746Z,18.52
2017-11-09T17:46:36.220Z,16.08
2017-11-09T17:49:03.449Z,17.35
2017-11-09T17:51:30.663Z,20.27
2017-11-09T17:53:57.148Z,19.20
2017-11-09T17:56:24.551Z,19.35
2017-11-09T17:58:50.996Z,21.80
2017-11-09T18:01:17.549Z,20.42
2017-11-09T18:03:44.781Z,21.75
2017-11-09T18:06:11.259Z,20.67
2017-11-09T18:08:37.755Z,19.60
2017-11-09T18:11:04.219Z,20.17
2017-11-09T18:13:30.682Z,21.77
2017-11-09T18:15:57.850Z,22.13
2017-11-09T18:18:24.375Z,23.38
2017-11-09T18:20:50.853Z,24.15
2017-11-09T18:23:21.066Z,21.73
2017-11-09T18:25:47.558Z,20.08
2017-11-09T18:28:14.033Z,31.35
2017-11-09T18:30:40.502Z,27.55
2017-11-09T18:33:07.757Z,22.20
2017-11-09T18:35:34.190Z,22.13
2017-11-09T18:38:01.391Z,22.27
2017-11-09T18:40:27.895Z,21.08
2017-11-09T18:42:55.108Z,28.23
2017-11-09T18:45:21.572Z,35.33
2017-11-09T18:47:48.765Z,31.20
2017-11-09T18:50:15.247Z,24.15
2017-11-09T18:52:41.769Z,24.27
2017-11-09T18:55:08.258Z,29.80
2017-11-09T18:57:34.734Z,22.45
2017-11-09T19:00:01.199Z,21.87
2017-11-09T19:02:27.690Z,25.98
2017-11-09T19:04:54.926Z,27.65
2017-11-09T19:07:21.407Z,22.30
2017-11-09T19:09:48.653Z,22.13
2017-11-09T19:12:15.834Z,20.35
2017-11-09T19:14:42.324Z,24.55
2017-11-09T19:17:09.568Z,22.98
2017-11-09T19:19:36.038Z,21.10
2017-11-09T19:22:02.595Z,21.77
2017-11-09T19:24:29.071Z,25.12
2017-11-09T19:26:55.568Z,28.80
2017-11-09T19:29:22.065Z,28.30
2017-11-09T19:31:49.288Z,30.92
2017-11-09T19:34:15.791Z,28.87
2017-11-09T19:36:42.268Z,20.65
2017-11-09T19:39:08.755Z,18.83
2017-11-09T19:41:35.251Z,18.87
2017-11-09T19:44:01.692Z,20.02
2017-11-09T19:46:28.229Z,23.23
2017-11-09T19:48:54.688Z,25.40
2017-11-09T19:51:21.201Z,23.30
2017-11-09T19:53:47.698Z,19.73
2017-11-09T19:56:14.147Z,20.80
2017-11-09T19:58:41.370Z,21.52
2017-11-09T20:01:08.600Z,19.67
2017-11-09T20:03:35.078Z,20.55
2017-11-09T20:06:01.541Z,19.55
2017-11-09T20:08:28.004Z,22.20
2017-11-09T20:10:54.495Z,17.37
2017-11-09T20:13:21.698Z,18.30
2017-11-09T20:15:48.163Z,20.10
2017-11-09T20:18:15.410Z,17.85
2017-11-09T20:20:41.864Z,20.25
2017-11-09T20:23:08.327Z,19.20
2017-11-09T20:25:34.820Z,19.55
2017-11-09T20:28:02.039Z,19.02
2017-11-09T20:30:28.490Z,19.12
2017-11-09T20:32:55.710Z,19.05
2017-11-09T20:35:22.212Z,20.23
2017-11-09T20:37:49.400Z,20.02
2017-11-09T20:40:15.972Z,21.27
2017-11-09T20:42:43.211Z,20.65
2017-11-09T20:45:09.747Z,22.80
2017-11-09T20:47:36.221Z,19.40
2017-11-09T20:50:02.706Z,19.52
2017-11-09T20:52:29.205Z,20.12
2017-11-09T20:54:55.726Z,23.70
2017-11-09T20:57:22.277Z,20.73
2017-11-09T20:59:48.779Z,23.50
2017-11-09T21:02:18.047Z,21.60
2017-11-09T21:04:45.335Z,20.33
2017-11-09T21:07:11.827Z,31.87
2017-11-09T21:09:38.271Z,21.73
2017-11-09T21:12:04.815Z,21.15
2017-11-09T21:14:32.030Z,20.88
2017-11-09T21:16:58.533Z,20.52
2017-11-09T21:19:25.029Z,20.90
2017-11-09T21:21:51.537Z,21.30
2017-11-09T21:24:18.017Z,19.95
2017-11-09T21:26:45.231Z,18.70
2017-11-09T21:29:11.735Z,20.40
2017-11-09T21:31:38.199Z,19.40
2017-11-09T21:34:06.392Z,19.75
2017-11-09T21:36:32.899Z,19.40
2017-11-09T21:38:59.331Z,18.37
2017-11-09T21:41:26.538Z,21.37
2017-11-09T21:43:53.745Z,19.05
2017-11-09T21:46:20.183Z,18.20
2017-11-09T21:48:47.429Z,25.45
2017-11-09T21:51:13.866Z,18.75
2017-11-09T21:53:40.296Z,19.27
2017-11-09T21:56:06.748Z,18.60
2017-11-09T21:58:33.234Z,19.15
2017-11-09T22:00:59.751Z,18.95
2017-11-09T22:03:26.192Z,16.95
2017-11-09T22:05:52.694Z,18.05
2017-11-09T22:08:19.151Z,17.77
2017-11-09T22:10:45.651Z,17.90
2017-11-09T22:13:12.115Z,16.20
2017-11-09T22:15:39.303Z,18.12
2017-11-09T22:18:05.764Z,18.62
2017-11-09T22:20:32.961Z,17.85
2017-11-09T22:22:59.410Z,17.23
2017-11-09T22:25:25.883Z,18.58
2017-11-09T22:27:52.353Z,21.20
2017-11-09T22:30:18.936Z,20.20
2017-11-09T22:32:45.423Z,21.70
2017-11-09T22:35:11.842Z,20.98
2017-11-09T22:37:39.073Z,21.65
2017-11-09T22:40:05.503Z,23.00
2017-11-09T22:42:31.939Z,22.00
2017-11-09T22:44:58.377Z,26.75
2017-11-09T22:47:25.603Z,24.67
2017-11-09T22:49:52.058Z,23.60
2017-11-09T22:52:18.498Z,22.92
2017-11-09T22:54:45.699Z,22.17
2017-11-09T22:57:12.201Z,23.35
2017-11-09T22:59:38.675Z,22.77
2017-11-09T23:02:05.162Z,23.23
2017-11-09T23:04:32.347Z,21.37
2017-11-09T23:06:58.821Z,21.35
2017-11-09T23:09:26.044Z,20.77
2017-11-09T23:11:52.541Z,23.95
2017-11-09T23:14:19.038Z,24.55
2017-11-09T23:16:45.513Z,23.23
2017-11-09T23:19:11.976Z,21.87
2017-11-09T23:21:38.426Z,18.35
2017-11-09T23:24:04.886Z,21.37
2017-11-09T23:26:32.074Z,21.30
2017-11-09T23:28:58.506Z,22.17
2017-11-09T23:31:24.949Z,21.55
2017-11-09T23:33:51.445Z,21.25
2017-11-09T23:36:17.930Z,19.00
2017-11-09T23:38:44.408Z,23.17
2017-11-09T23:41:11.602Z,22.77
2017-11-09T23:43:38.107Z,22.50
2017-11-09T23:46:10.486Z,21.40
2017-11-09T23:48:37.687Z,20.83
2017-11-09T23:51:04.147Z,22.75
2017-11-09T23:53:30.601Z,24.40
2017-11-09T23:55:57.034Z,22.35
2017-11-09T23:58:24.237Z,22.30
